createdAt,value
2022-08-12T02:40:12.711Z,0.1
2022-08-12T02:42:00.975Z,0.2
2022-08-12T02:43:00.844Z,0.3
2022-08-12T02:45:01.480Z,0.4
2022-08-12T02:46:00.839Z,0.5
2022-08-12T02:48:01.328Z,0.6
2022-08-12T02:49:00.891Z,0.7
2022-08-12T02:51:01.114Z,0.8
2022-08-12T02:52:00.842Z,0.9
2022-08-12T02:53:00.849Z,1.0
2022-08-12T02:54:04.264Z,1.1
2022-08-12T02:55:00.864Z,1.3
2022-08-12T02:56:01.054Z,1.4
2022-08-12T02:57:00.876Z,1.5
2022-08-12T02:58:00.843Z,1.7
2022-08-12T02:59:00.840Z,1.9
2022-08-12T03:00:05.947Z,2.2
2022-08-12T03:01:01.124Z,2.5
2022-08-12T03:02:00.857Z,2.7
2022-08-12T03:03:00.842Z,3.1
2022-08-12T03:04:00.842Z,3.5
2022-08-12T03:05:00.852Z,4.1
2022-08-12T03:06:01.088Z,4.7
2022-08-12T03:07:00.843Z,5.3
2022-08-12T03:08:00.840Z,6.1
2022-08-12T03:09:00.857Z,6.9
2022-08-12T03:10:22.216Z,8.1
2022-08-12T03:11:00.976Z,9.2
2022-08-12T03:12:00.847Z,10.3
2022-08-12T03:13:00.849Z,11.9
2022-08-12T03:14:00.851Z,13.5
2022-08-12T03:15:01.353Z,15.9
2022-08-12T03:16:01.353Z,18.3
2022-08-12T03:17:00.858Z,20.7
2022-08-12T03:18:24.577Z,24.3
2022-08-12T03:19:00.826Z,27.8
2022-08-12T03:20:08.981Z,32.8
2022-08-12T03:21:01.059Z,37.8
2022-08-12T03:22:09.016Z,42.8
2022-08-12T03:23:00.855Z,50.0
2022-08-12T03:24:00.848Z,57.2
2022-08-12T03:25:00.860Z,67.3
2022-08-12T03:26:01.106Z,77.5
2022-08-12T03:27:00.875Z,87.6
2022-08-12T03:28:00.850Z,101.8
2022-08-12T03:29:00.855Z,116.0
2022-08-12T03:30:01.296Z,135.4
2022-08-12T03:31:01.062Z,154.8
2022-08-12T03:32:00.856Z,174.2
2022-08-12T03:33:00.851Z,200.2
2022-08-12T03:34:02.987Z,226.2
2022-08-12T03:35:01.281Z,260.4
2022-08-12T03:36:01.055Z,294.6
2022-08-12T03:37:00.876Z,328.8
2022-08-12T03:38:00.849Z,372.9
2022-08-12T03:39:00.852Z,416.9
2022-08-12T03:40:00.908Z,472.5
2022-08-12T03:41:01.065Z,528.1
2022-08-12T03:42:00.854Z,583.7
2022-08-12T03:43:00.861Z,652.6
2022-08-12T03:44:00.856Z,721.5
2022-08-12T03:45:06.871Z,805.5
2022-08-12T03:46:01.071Z,889.5
2022-08-12T03:47:00.945Z,973.5
2022-08-12T03:48:02.022Z,1074.1
2022-08-12T03:49:00.936Z,1174.8
2022-08-12T03:50:01.009Z,1293.3
2022-08-12T03:51:01.067Z,1411.9
2022-08-12T03:52:00.887Z,1530.4
2022-08-12T03:53:00.863Z,1667.7
2022-08-12T03:54:00.858Z,1805.1
2022-08-12T03:55:01.284Z,1961.8
2022-08-12T03:56:01.060Z,2118.5
2022-08-12T03:57:00.856Z,2275.3
2022-08-12T03:58:00.861Z,2452.1
2022-08-12T03:59:00.867Z,2628.9
2022-08-12T04:00:01.297Z,2825.6
2022-08-12T04:01:01.385Z,3022.3
2022-08-12T04:02:00.864Z,3219.1
2022-08-12T04:03:00.870Z,3435.9
2022-08-12T04:04:00.864Z,3652.7
2022-08-12T04:05:00.871Z,3889.3
2022-08-12T04:06:01.062Z,4126.0
2022-08-12T04:07:00.859Z,4362.7
2022-08-12T04:08:00.860Z,4616.1
2022-08-12T04:09:00.858Z,4869.5
2022-08-12T04:10:00.876Z,5140.3
2022-08-12T04:11:01.068Z,5411.1
2022-08-12T04:12:00.860Z,5681.9
2022-08-12T04:13:00.863Z,5966.1
2022-08-12T04:14:00.870Z,6250.4
2022-08-12T04:15:01.441Z,6548.6
2022-08-12T04:16:01.978Z,6846.8
2022-08-12T04:17:00.869Z,7145.0
2022-08-12T04:18:06.301Z,7452.4
2022-08-12T04:19:00.863Z,7759.8
2022-08-12T04:20:00.881Z,8077.7
2022-08-12T04:21:01.083Z,8395.5
2022-08-12T04:22:03.244Z,8713.4
2022-08-12T04:23:00.861Z,9060.7
2022-08-12T04:24:00.875Z,9407.9
2022-08-12T04:25:00.878Z,9757.4
2022-08-12T04:26:01.078Z,10106.9
2022-08-12T04:27:00.902Z,10456.3
2022-08-12T04:28:09.626Z,10808.7
2022-08-12T04:29:00.868Z,11161.0
2022-08-12T04:30:31.683Z,11499.6
2022-08-12T04:31:01.007Z,11838.2
2022-08-12T04:32:00.863Z,12176.8
2022-08-12T04:33:00.863Z,12502.1
2022-08-12T04:34:00.867Z,12827.5
2022-08-12T04:35:01.288Z,13143.7
2022-08-12T04:36:01.083Z,13460.0
2022-08-12T04:37:00.870Z,13776.3
2022-08-12T04:38:01.187Z,14069.0
2022-08-12T04:39:00.863Z,14361.7
2022-08-12T04:40:00.876Z,14644.0
2022-08-12T04:41:01.079Z,14926.3
2022-08-12T04:42:00.911Z,15208.5
2022-08-12T04:43:00.880Z,15461.8
2022-08-12T04:44:02.539Z,15715.1
2022-08-12T04:45:01.376Z,15960.0
2022-08-12T04:46:01.074Z,16204.9
2022-08-12T04:47:00.870Z,16449.9
2022-08-12T04:48:00.882Z,16690.9
2022-08-12T04:49:00.868Z,16931.9
2022-08-12T04:50:01.324Z,17164.8
2022-08-12T04:51:01.077Z,17397.7
2022-08-12T04:52:00.904Z,17630.7
2022-08-12T04:53:00.867Z,17849.1
2022-08-12T04:54:00.869Z,18067.6
2022-08-12T04:55:00.893Z,18280.1
2022-08-12T04:56:01.076Z,18492.5
2022-08-12T04:57:03.308Z,18705.0
2022-08-12T04:58:00.870Z,18927.1
2022-08-12T04:59:00.870Z,19149.1
2022-08-12T05:00:01.466Z,19369.6
2022-08-12T05:01:01.077Z,19590.1
2022-08-12T05:02:00.918Z,19810.5
2022-08-12T05:03:00.916Z,20027.9
2022-08-12T05:04:05.875Z,20245.2
2022-08-12T05:05:01.328Z,20455.7
2022-08-12T05:06:01.076Z,20666.3
2022-08-12T05:07:00.873Z,20876.8
2022-08-12T05:08:00.879Z,21114.9
2022-08-12T05:09:00.895Z,21353.1
2022-08-12T05:10:03.177Z,21549.5
2022-08-12T05:11:01.084Z,21746.0
2022-08-12T05:12:00.895Z,21942.5
2022-08-12T05:13:00.890Z,22137.7
2022-08-12T05:14:00.875Z,22333.0
2022-08-12T05:15:01.341Z,22539.2
2022-08-12T05:16:05.328Z,22745.4
2022-08-12T05:17:00.872Z,22951.6
2022-08-12T05:18:02.121Z,23487.5
2022-08-12T05:19:00.917Z,24023.5
2022-08-12T05:20:04.510Z,24751.7
2022-08-12T05:21:01.278Z,25479.9
2022-08-12T05:22:01.050Z,26208.1
2022-08-12T05:23:06.321Z,27136.1
2022-08-12T05:24:00.885Z,28064.1
2022-08-12T05:25:02.480Z,29757.4
2022-08-12T05:26:01.101Z,31450.7
2022-08-12T05:27:00.892Z,33144.1
2022-08-12T05:28:00.879Z,34960.4
2022-08-12T05:29:00.880Z,36776.7
2022-08-12T05:30:09.807Z,38577.0
2022-08-12T05:31:01.105Z,40377.3
2022-08-12T05:32:00.930Z,42177.5
2022-08-12T05:33:00.880Z,43649.7
2022-08-12T05:34:00.949Z,45121.9
2022-08-12T05:35:01.386Z,46389.7
2022-08-12T05:36:01.111Z,47657.5
2022-08-12T05:37:00.885Z,48925.3
2022-08-12T05:38:00.896Z,49962.9
2022-08-12T05:39:00.883Z,51000.5
2022-08-12T05:40:11.702Z,51315.3
2022-08-12T05:41:01.101Z,51630.0
2022-08-12T05:42:00.886Z,51944.7
2022-08-12T05:43:00.880Z,52124.5
2022-08-12T05:44:00.887Z,52304.3
2022-08-12T05:45:01.324Z,52461.6
2022-08-12T05:46:01.091Z,52618.9
2022-08-12T05:47:00.943Z,52776.1
2022-08-12T05:48:00.885Z,52938.3
2022-08-12T05:49:00.897Z,53100.4
2022-08-12T05:50:01.313Z,53311.1
2022-08-12T05:51:01.092Z,53521.9
2022-08-12T05:52:00.941Z,53732.6
2022-08-12T05:53:00.888Z,54011.3
2022-08-12T05:54:00.894Z,54290.1
2022-08-12T05:55:01.338Z,54627.3
2022-08-12T05:56:01.094Z,54964.6
2022-08-12T05:57:00.914Z,55301.9
2022-08-12T05:58:00.888Z,55728.8
2022-08-12T05:59:00.899Z,56155.7
2022-08-12T06:00:01.324Z,56693.9
2022-08-12T06:01:01.096Z,57232.0
2022-08-12T06:02:11.058Z,57770.1
2022-08-12T06:03:01.335Z,58289.9
2022-08-12T06:04:00.893Z,58809.6
2022-08-12T06:05:01.515Z,59380.9
2022-08-12T06:06:01.105Z,59952.1
2022-08-12T06:07:00.895Z,60523.4
2022-08-12T06:08:02.996Z,61108.5
2022-08-12T06:09:00.902Z,61693.7
2022-08-12T06:10:01.416Z,62182.1
2022-08-12T06:11:01.096Z,62670.5
2022-08-12T06:12:05.270Z,63158.9
2022-08-12T06:13:00.899Z,63535.9
2022-08-12T06:14:00.895Z,63912.9
2022-08-12T06:15:01.342Z,64174.9
2022-08-12T06:16:01.145Z,64437.0
2022-08-12T06:17:01.986Z,64699.1
2022-08-12T06:18:00.927Z,64939.5
2022-08-12T06:19:00.902Z,65180.0
2022-08-12T06:20:22.536Z,65298.3
2022-08-12T06:21:01.791Z,65416.7
2022-08-12T06:22:00.902Z,65535.0
2022-08-12T06:30:37.762Z,65535.0
2022-08-12T06:45:01.748Z,65535.0
2022-08-12T07:00:02.713Z,65535.0
2022-08-12T07:15:02.867Z,65535.0
2022-08-12T07:30:06.177Z,65535.0
2022-08-12T07:45:01.634Z,65535.0
2022-08-12T08:00:03.283Z,65535.0
2022-08-12T08:15:01.799Z,65535.0
2022-08-12T08:30:01.586Z,65535.0
2022-08-12T08:45:01.681Z,65535.0
2022-08-12T09:30:14.903Z,65535.0
2022-08-12T09:45:18.701Z,65535.0
2022-08-12T10:00:46.853Z,65535.0
2022-08-12T10:30:39.319Z,65535.0
2022-08-12T11:00:32.364Z,65535.0
2022-08-12T11:15:19.599Z,65535.0
2022-08-12T11:30:30.824Z,65535.0
2022-08-12T12:01:57.846Z,65535.0
2022-08-12T12:20:01.602Z,65535.0
2022-08-12T12:30:20.110Z,65535.0
2022-08-12T12:45:01.627Z,65535.0
2022-08-12T13:15:01.493Z,65535.0
2022-08-12T14:15:03.657Z,65535.0
2022-08-12T14:30:29.921Z,65535.0
2022-08-12T15:00:02.778Z,65535.0
2022-08-12T15:15:02.578Z,65535.0
2022-08-12T16:00:22.339Z,65535.0
2022-08-12T16:15:05.549Z,65535.0
2022-08-12T16:23:03.965Z,64930.8
2022-08-12T16:24:00.836Z,64326.6
2022-08-12T16:25:01.060Z,63722.4
2022-08-12T16:26:03.449Z,62448.4
2022-08-12T16:27:00.834Z,61174.4
2022-08-12T16:28:00.899Z,59613.8
2022-08-12T16:29:14.837Z,58053.2
2022-08-12T16:31:01.788Z,54772.3
2022-08-12T16:32:00.840Z,53051.9
2022-08-12T16:33:00.836Z,51218.3
2022-08-12T16:34:01.107Z,49384.7
2022-08-12T16:36:00.845Z,45646.7
2022-08-12T16:37:00.842Z,43742.2
2022-08-12T16:38:24.140Z,42387.1
2022-08-12T16:39:01.178Z,41032.1
2022-08-12T16:41:00.851Z,38939.8
2022-08-12T16:42:00.910Z,38202.6
2022-08-12T16:43:02.334Z,37714.3
2022-08-12T16:44:00.846Z,37225.9
2022-08-12T16:46:04.885Z,36361.4
2022-08-12T16:47:00.831Z,35985.2
2022-08-12T16:48:00.873Z,35674.7
2022-08-12T16:49:04.391Z,35364.3
2022-08-12T16:51:00.853Z,34771.6
2022-08-12T16:52:00.950Z,34489.4
2022-08-12T16:53:02.048Z,34222.2
2022-08-12T16:54:00.843Z,33955.0
2022-08-12T16:55:01.176Z,33687.8
2022-08-12T16:56:00.842Z,33423.1
2022-08-12T16:57:00.841Z,33158.5
2022-08-12T16:58:00.986Z,32892.7
2022-08-12T16:59:00.847Z,32626.9
2022-08-12T17:01:01.890Z,32120.7
2022-08-12T17:02:00.965Z,31880.3
2022-08-12T17:03:00.922Z,31661.1
2022-08-12T17:04:01.938Z,31442.0
2022-08-12T17:06:00.856Z,31018.4
2022-08-12T17:07:00.842Z,30813.9
2022-08-12T17:08:00.851Z,30621.9
2022-08-12T17:09:00.850Z,30429.9
2022-08-12T17:11:00.911Z,30062.2
2022-08-12T17:12:00.852Z,29886.5
2022-08-12T17:13:00.853Z,29723.2
2022-08-12T17:14:00.850Z,29559.9
2022-08-12T17:15:21.246Z,29396.7
2022-08-12T17:16:06.044Z,29224.2
2022-08-12T17:17:00.852Z,29051.7
2022-08-12T17:18:15.654Z,28880.1
2022-08-12T17:19:03.161Z,28708.4
2022-08-12T17:20:29.916Z,28536.7
2022-08-12T17:21:00.829Z,28367.4
2022-08-12T17:22:02.401Z,28198.1
2022-08-12T17:23:00.881Z,28027.7
2022-08-12T17:24:00.850Z,27857.4
2022-08-12T17:26:00.851Z,27517.9
2022-08-12T17:27:00.852Z,27348.8
2022-08-12T17:28:00.914Z,27172.4
2022-08-12T17:29:00.862Z,26996.0
2022-08-12T17:31:00.851Z,26639.4
2022-08-12T17:32:02.315Z,26459.2
2022-08-12T17:33:00.857Z,26268.9
2022-08-12T17:34:00.849Z,26078.5
2022-08-12T17:35:01.690Z,25888.2
2022-08-12T17:36:01.126Z,25686.5
2022-08-12T17:37:01.795Z,25484.9
2022-08-12T17:38:00.856Z,25274.1
2022-08-12T17:39:00.856Z,25063.4
2022-08-12T17:40:20.894Z,24852.7
2022-08-12T17:41:00.870Z,24636.0
2022-08-12T17:42:00.876Z,24419.3
2022-08-12T17:43:00.850Z,24194.9
2022-08-12T17:44:00.853Z,23970.5
2022-08-12T17:45:19.049Z,23746.1
2022-08-12T17:46:02.090Z,23514.4
2022-08-12T17:47:00.890Z,23282.7
2022-08-12T17:48:05.579Z,23042.3
2022-08-12T17:49:00.857Z,22801.9
2022-08-12T17:51:00.852Z,22312.9
2022-08-12T17:52:03.201Z,22064.4
2022-08-12T17:53:02.371Z,21807.7
2022-08-12T17:54:06.483Z,21551.1
2022-08-12T17:56:00.860Z,21032.3
2022-08-12T17:57:01.350Z,20770.1
2022-08-12T17:58:00.865Z,20506.7
2022-08-12T17:59:00.863Z,20243.3
2022-08-12T18:01:00.885Z,19718.8
2022-08-12T18:02:00.901Z,19457.7
2022-08-12T18:03:01.408Z,19202.5
2022-08-12T18:04:14.104Z,18947.4
2022-08-12T18:06:04.867Z,18443.1
2022-08-12T18:07:00.989Z,18194.0
2022-08-12T18:08:00.863Z,17990.4
2022-08-12T18:09:08.444Z,17745.6
2022-08-12T18:11:02.916Z,17257.1
2022-08-12T18:12:05.257Z,17013.3
2022-08-12T18:13:00.859Z,16812.3
2022-08-12T18:14:00.865Z,16568.2
2022-08-12T18:16:04.468Z,16077.3
2022-08-12T18:17:01.139Z,15830.5
2022-08-12T18:18:00.863Z,15622.0
2022-08-12T18:19:00.857Z,15370.1
2022-08-12T18:20:16.907Z,15118.1
2022-08-12T18:21:00.859Z,14861.0
2022-08-12T18:22:02.520Z,14603.9
2022-08-12T18:23:00.870Z,14346.7
2022-08-12T18:24:00.934Z,14085.5
2022-08-12T18:26:13.611Z,13559.9
2022-08-12T18:27:00.919Z,13295.4
2022-08-12T18:28:16.374Z,13030.9
2022-08-12T18:29:01.874Z,12763.0
2022-08-12T18:31:03.250Z,12223.3
2022-08-12T18:32:13.245Z,11951.5
2022-08-12T18:33:03.351Z,11679.7
2022-08-12T18:34:02.750Z,11403.8
2022-08-12T18:36:00.929Z,10848.6
2022-08-12T18:37:10.441Z,10569.3
2022-08-12T18:38:01.196Z,10289.9
2022-08-12T18:39:00.864Z,10008.1
2022-08-12T18:41:00.866Z,9442.7
2022-08-12T18:42:00.862Z,9159.0
2022-08-12T18:43:00.930Z,8875.3
2022-08-12T18:44:02.402Z,8591.7
2022-08-12T18:45:03.425Z,8308.0
2022-08-12T18:46:00.860Z,8026.3
2022-08-12T18:47:00.865Z,7744.7
2022-08-12T18:48:00.867Z,7463.0
2022-08-12T18:49:17.284Z,7185.2
2022-08-12T18:50:01.444Z,6907.4
2022-08-12T18:51:00.868Z,6635.4
2022-08-12T18:52:03.790Z,6363.4
2022-08-12T18:53:00.932Z,6091.4
2022-08-12T18:54:05.816Z,5827.6
2022-08-12T18:55:10.621Z,5563.8
2022-08-12T18:56:00.997Z,5310.3
2022-08-12T18:57:00.872Z,5056.7
2022-08-12T18:58:07.922Z,4803.2
2022-08-12T18:59:00.864Z,4561.7
2022-08-12T19:01:00.880Z,4091.9
2022-08-12T19:02:19.000Z,3863.7
2022-08-12T19:03:00.844Z,3635.5
2022-08-12T19:04:01.894Z,3422.6
2022-08-12T19:06:00.864Z,3014.1
2022-08-12T19:07:00.875Z,2818.6
2022-08-12T19:08:02.107Z,2623.1
2022-08-12T19:09:00.894Z,2446.1
2022-08-12T19:10:04.913Z,2269.1
2022-08-12T19:11:00.898Z,2111.2
2022-08-12T19:12:00.929Z,1953.3
2022-08-12T19:13:00.870Z,1795.5
2022-08-12T19:14:00.867Z,1657.1
2022-08-12T19:15:05.623Z,1518.8
2022-08-12T19:16:01.325Z,1399.8
2022-08-12T19:17:00.865Z,1280.8
2022-08-12T19:18:02.956Z,1161.8
2022-08-12T19:19:00.921Z,1061.3
2022-08-12T19:20:02.948Z,960.9
2022-08-12T19:21:06.189Z,877.2
2022-08-12T19:22:00.879Z,793.5
2022-08-12T19:23:02.705Z,709.9
2022-08-12T19:24:00.875Z,641.1
2022-08-12T19:25:01.628Z,572.4
2022-08-12T19:26:02.836Z,517.1
2022-08-12T19:27:00.898Z,461.7
2022-08-12T19:28:00.866Z,406.4
2022-08-12T19:29:00.865Z,362.5
2022-08-12T19:31:00.866Z,284.5
2022-08-12T19:32:01.891Z,250.4
2022-08-12T19:33:00.866Z,216.3
2022-08-12T19:34:21.858Z,190.3
